Time;durP1;ratioP1;P1;durP2;ratioP2;P2;SDS_P1;SDS_P2;PMS_P1;PMS_P2;Temp;Humidity;BMP_temperature;BMP_pressure;BME280_temperature;BME280_humidity;BME280_pressure;Samples;Min_cycle;Max_cycle;Signal;HPM_P1;HPM_P2
2023/08/26 00:02:45;;;;;;;29.57;17.27;;;;;19.20;100358.00;;;;5023693;28;20702;-70
2023/08/26 00:05:32;;;;;;;30.80;16.93;;;;;19.20;100368.00;;;;5024353;28;20573;-70
2023/08/26 00:08:18;;;;;;;33.63;17.37;;;;;19.10;100374.00;;;;5026753;28;20726;-70
2023/08/26 00:11:04;;;;;;;30.03;17.63;;;;;19.10;100374.00;;;;5027923;28;20249;-70
2023/08/26 00:13:51;;;;;;;29.47;17.20;;;;;19.10;100368.00;;;;5023963;28;20574;-70
2023/08/26 00:16:38;;;;;;;36.60;18.40;;;;;19.10;100364.00;;;;5025767;28;20257;-70
2023/08/26 00:19:25;;;;;;;31.13;17.23;;;;;19.10;100367.00;;;;5023078;28;20768;-71
2023/08/26 00:22:12;;;;;;;33.53;17.33;;;;;19.10;100373.00;;;;5020476;28;20293;-69
2023/08/26 00:24:58;;;;;;;33.20;18.63;;;;;19.20;100363.00;;;;5027671;28;20213;-70
2023/08/26 00:27:45;;;;;;;34.10;18.30;;;;;19.20;100366.00;;;;5025001;28;20822;-70
2023/08/26 00:30:32;;;;;;;35.47;17.47;;;;;19.20;100370.00;;;;5020701;28;20233;-70
2023/08/26 00:33:18;;;;;;;36.20;18.60;;;;;19.20;100366.00;;;;5025222;28;20213;-70
2023/08/26 00:36:06;;;;;;;32.17;18.10;;;;;19.30;100358.00;;;;5020311;28;20203;-70
2023/08/26 00:38:52;;;;;;;36.60;18.53;;;;;19.30;100362.00;;;;5027781;28;20210;-70
2023/08/26 00:41:39;;;;;;;34.50;17.33;;;;;19.30;100350.00;;;;5021053;28;20315;-71
2023/08/26 00:44:26;;;;;;;30.93;17.27;;;;;19.20;100346.00;;;;5026570;28;20987;-71
2023/08/26 00:47:12;;;;;;;31.57;17.77;;;;;19.20;100341.00;;;;5026975;28;20209;-70
2023/08/26 00:49:59;;;;;;;27.33;16.17;;;;;19.20;100351.00;;;;5027596;28;20221;-69
2023/08/26 00:52:47;;;;;;;28.60;16.60;;;;;19.10;100352.00;;;;5020564;28;20213;-69
2023/08/26 00:55:34;;;;;;;29.23;16.60;;;;;19.10;100337.00;;;;5026455;28;20209;-69
2023/08/26 00:58:21;;;;;;;26.63;16.03;;;;;19.00;100345.00;;;;5026068;28;20824;-68
2023/08/26 01:01:07;;;;;;;28.67;15.83;;;;;19.10;100347.00;;;;5025539;28;20309;-70
2023/08/26 01:03:54;;;;;;;26.73;16.43;;;;;19.00;100346.00;;;;5023970;28;20210;-69
2023/08/26 01:06:40;;;;;;;29.00;17.30;;;;;19.00;100351.00;;;;5020683;28;20210;-70
2023/08/26 01:09:29;;;;;;;28.43;16.87;;;;;19.10;100347.00;;;;5024931;28;20722;-71
2023/08/26 01:12:24;;;;;;;29.77;17.00;;;;;19.10;100350.00;;;;5026361;28;20384;-68
2023/08/26 01:15:13;;;;;;;29.27;15.57;;;;;19.10;100351.00;;;;5025224;28;20214;-70
2023/08/26 01:18:05;;;;;;;36.17;16.13;;;;;19.10;100356.00;;;;5026597;28;20205;-71
2023/08/26 01:20:52;;;;;;;29.23;16.70;;;;;19.10;100364.00;;;;5014722;28;20288;-71
2023/08/26 01:23:43;;;;;;;29.63;16.43;;;;;19.10;100365.00;;;;5023317;28;20209;-71
2023/08/26 01:26:30;;;;;;;29.27;15.90;;;;;19.10;100373.00;;;;5026358;28;20202;-70
2023/08/26 01:29:16;;;;;;;24.67;15.53;;;;;19.10;100367.00;;;;5024114;28;20819;-71
2023/08/26 01:32:16;;;;;;;32.90;17.30;;;;;19.10;100371.00;;;;5021940;28;20209;-71
2023/08/26 01:35:09;;;;;;;30.07;17.67;;;;;19.10;100377.00;;;;5018592;28;20206;-71
2023/08/26 01:37:58;;;;;;;26.57;15.33;;;;;19.10;100368.00;;;;5019981;28;20346;-71
2023/08/26 01:40:52;;;;;;;28.37;15.10;;;;;19.10;100377.00;;;;5024624;28;20225;-71
2023/08/26 01:43:39;;;;;;;25.07;15.57;;;;;19.10;100380.00;;;;5023019;28;20345;-71
2023/08/26 01:46:36;;;;;;;29.40;16.77;;;;;19.10;100382.00;;;;5025283;28;20213;-70
2023/08/26 01:49:23;;;;;;;28.57;16.17;;;;;19.10;100377.00;;;;5024418;28;20229;-71
2023/08/26 01:52:10;;;;;;;29.73;15.90;;;;;19.10;100379.00;;;;5023269;28;20212;-72
2023/08/26 01:54:57;;;;;;;26.83;16.07;;;;;19.10;100378.00;;;;5020646;28;20205;-71
2023/08/26 01:57:46;;;;;;;26.73;16.23;;;;;19.10;100382.00;;;;5018313;28;20293;-71
2023/08/26 02:00:33;;;;;;;31.37;17.53;;;;;19.10;100380.00;;;;5025326;28;20313;-71
2023/08/26 02:03:19;;;;;;;31.30;17.07;;;;;19.10;100374.00;;;;5024541;28;20561;-71
2023/08/26 02:06:06;;;;;;;31.40;17.47;;;;;19.10;100368.00;;;;5025693;28;20569;-71
2023/08/26 02:08:54;;;;;;;29.67;17.60;;;;;19.20;100377.00;;;;5020474;28;20296;-71
2023/08/26 02:11:40;;;;;;;26.97;16.53;;;;;19.10;100379.00;;;;5025048;28;20218;-71
2023/08/26 02:14:28;;;;;;;28.83;17.13;;;;;19.10;100379.00;;;;5024300;28;20205;-71
2023/08/26 02:17:14;;;;;;;30.53;16.93;;;;;19.10;100374.00;;;;5023102;28;20212;-70
2023/08/26 02:20:01;;;;;;;29.90;18.23;;;;;19.10;100379.00;;;;5025313;28;20221;-69
2023/08/26 02:22:47;;;;;;;29.83;17.57;;;;;19.10;100370.00;;;;5020532;28;20220;-71
2023/08/26 02:25:34;;;;;;;33.33;17.13;;;;;19.20;100368.00;;;;5025513;28;20229;-71
2023/08/26 02:28:20;;;;;;;35.73;19.37;;;;;19.20;100371.00;;;;5022983;28;20211;-71
2023/08/26 02:31:08;;;;;;;33.17;18.40;;;;;19.10;100371.00;;;;5021469;28;20229;-68
2023/08/26 02:33:55;;;;;;;30.33;17.10;;;;;19.10;100378.00;;;;5016176;28;20317;-69
2023/08/26 02:36:41;;;;;;;32.00;18.20;;;;;19.10;100368.00;;;;5022440;28;20252;-72
2023/08/26 02:39:27;;;;;;;34.47;18.60;;;;;19.10;100367.00;;;;5025593;28;20232;-69
2023/08/26 02:42:15;;;;;;;34.23;17.97;;;;;19.10;100371.00;;;;5025506;28;20230;-69
2023/08/26 02:45:01;;;;;;;36.07;18.17;;;;;19.10;100362.00;;;;5026014;28;20269;-69
2023/08/26 02:47:49;;;;;;;31.50;18.17;;;;;19.10;100370.00;;;;5026237;28;20864;-69
2023/08/26 02:50:37;;;;;;;37.63;18.33;;;;;19.10;100374.00;;;;5028533;28;20233;-68
2023/08/26 02:53:24;;;;;;;32.63;18.23;;;;;19.10;100371.00;;;;5029223;28;20230;-69
2023/08/26 02:56:11;;;;;;;32.27;17.83;;;;;19.10;100375.00;;;;5029091;28;20248;-69
2023/08/26 02:58:58;;;;;;;29.43;17.63;;;;;19.00;100379.00;;;;5026594;28;20300;-70
2023/08/26 03:01:45;;;;;;;28.80;17.37;;;;;19.00;100385.00;;;;5028920;28;20230;-71
2023/08/26 03:04:33;;;;;;;26.47;16.20;;;;;18.90;100383.00;;;;5027841;28;20213;-71
2023/08/26 03:07:20;;;;;;;26.97;15.10;;;;;18.80;100404.00;;;;5029113;28;20213;-72
2023/08/26 03:10:07;;;;;;;22.67;13.23;;;;;18.60;100403.00;;;;5024649;28;20330;-71
2023/08/26 03:12:55;;;;;;;17.83;11.20;;;;;18.50;100407.00;;;;5023737;28;20206;-71
2023/08/26 03:15:41;;;;;;;12.13;8.37;;;;;18.40;100406.00;;;;5022340;28;20332;-67
2023/08/26 03:18:29;;;;;;;10.77;6.77;;;;;18.20;100428.00;;;;5027211;28;20288;-71
2023/08/26 03:21:17;;;;;;;12.63;6.07;;;;;18.10;100420.00;;;;5020440;28;20229;-71
2023/08/26 03:24:04;;;;;;;15.07;6.27;;;;;18.00;100426.00;;;;5025822;28;20280;-70
2023/08/26 03:26:51;;;;;;;9.67;6.20;;;;;17.90;100434.00;;;;5024663;28;20226;-70
2023/08/26 03:29:38;;;;;;;9.23;5.70;;;;;17.80;100434.00;;;;5028299;28;20249;-71
2023/08/26 03:32:25;;;;;;;12.23;6.23;;;;;17.70;100426.00;;;;5027491;28;20711;-71
2023/08/26 03:35:12;;;;;;;7.77;5.47;;;;;17.60;100427.00;;;;5028085;28;20209;-71
2023/08/26 03:38:00;;;;;;;11.97;5.03;;;;;17.50;100426.00;;;;5026373;28;20214;-71
2023/08/26 03:40:47;;;;;;;7.43;4.67;;;;;17.30;100432.00;;;;5027001;28;20238;-71
2023/08/26 03:43:33;;;;;;;6.53;4.07;;;;;17.20;100438.00;;;;5027650;28;20898;-70
2023/08/26 03:46:20;;;;;;;6.30;3.50;;;;;17.20;100441.00;;;;5024961;28;20232;-71
2023/08/26 03:49:07;;;;;;;9.87;3.50;;;;;17.10;100449.00;;;;5028194;28;20341;-70
2023/08/26 03:51:53;;;;;;;8.33;3.47;;;;;17.10;100449.00;;;;5022252;28;20356;-71
2023/08/26 03:54:41;;;;;;;3.90;2.43;;;;;17.10;100460.00;;;;5026503;28;20868;-71
2023/08/26 03:57:28;;;;;;;5.33;2.60;;;;;17.00;100456.00;;;;5026955;28;20206;-70
2023/08/26 04:00:17;;;;;;;4.90;2.70;;;;;16.90;100457.00;;;;5020353;28;20343;-70
2023/08/26 04:03:04;;;;;;;5.67;3.03;;;;;16.80;100461.00;;;;5025555;28;20742;-71
2023/08/26 04:05:57;;;;;;;6.90;2.57;;;;;16.90;100465.00;;;;5021511;28;20687;-71
2023/08/26 04:08:45;;;;;;;3.70;2.50;;;;;16.70;100468.00;;;;5020290;28;20209;-70
2023/08/26 04:11:33;;;;;;;6.60;2.80;;;;;16.70;100464.00;;;;5026187;28;20218;-71
2023/08/26 04:14:19;;;;;;;5.30;2.60;;;;;16.70;100461.00;;;;5025746;28;20222;-71
2023/08/26 04:17:06;;;;;;;6.50;3.00;;;;;16.60;100466.00;;;;5020229;28;20564;-71
2023/08/26 04:19:53;;;;;;;7.83;2.80;;;;;16.60;100478.00;;;;5024706;28;20388;-70
2023/08/26 04:22:39;;;;;;;5.90;2.70;;;;;16.50;100482.00;;;;5020479;28;20345;-70
2023/08/26 04:25:26;;;;;;;8.53;2.80;;;;;16.40;100482.00;;;;5025603;28;20221;-70
2023/08/26 04:28:14;;;;;;;7.53;2.70;;;;;16.40;100479.00;;;;5027535;28;20234;-71
2023/08/26 04:31:01;;;;;;;6.03;2.50;;;;;16.30;100483.00;;;;5023340;28;20230;-71
2023/08/26 04:33:47;;;;;;;5.13;2.63;;;;;16.40;100485.00;;;;5026021;28;20226;-71
2023/08/26 04:36:34;;;;;;;6.53;2.63;;;;;16.40;100488.00;;;;5026409;28;20206;-71
2023/08/26 04:39:22;;;;;;;3.33;2.60;;;;;16.50;100493.00;;;;5026711;28;20217;-72
2023/08/26 04:42:09;;;;;;;4.13;2.40;;;;;16.40;100501.00;;;;5023349;28;20833;-71
2023/08/26 04:44:56;;;;;;;8.40;2.60;;;;;16.40;100500.00;;;;5020302;28;20213;-70
2023/08/26 04:47:43;;;;;;;6.27;2.67;;;;;16.40;100501.00;;;;5019627;28;20276;-71
2023/08/26 04:50:30;;;;;;;3.43;2.50;;;;;16.20;100500.00;;;;5020114;28;20423;-71
2023/08/26 04:53:17;;;;;;;8.73;2.73;;;;;16.20;100510.00;;;;5018868;28;20232;-71
2023/08/26 04:56:04;;;;;;;5.87;2.50;;;;;16.20;100509.00;;;;5021007;28;20288;-69
2023/08/26 04:58:51;;;;;;;4.87;2.40;;;;;16.10;100526.00;;;;5027096;28;20221;-70
2023/08/26 05:01:38;;;;;;;5.27;2.30;;;;;16.10;100521.00;;;;5018610;28;20286;-71
2023/08/26 05:04:26;;;;;;;4.47;2.13;;;;;16.10;100522.00;;;;5024978;28;20261;-71
2023/08/26 05:07:12;;;;;;;3.90;2.40;;;;;16.10;100526.00;;;;5021119;28;20209;-71
2023/08/26 05:09:59;;;;;;;6.03;2.60;;;;;16.00;100527.00;;;;5026410;28;20597;-71
2023/08/26 05:12:45;;;;;;;7.40;2.87;;;;;16.10;100527.00;;;;5017997;28;20316;-70
2023/08/26 05:15:33;;;;;;;4.10;3.00;;;;;16.10;100522.00;;;;5026941;28;20218;-69
2023/08/26 05:18:21;;;;;;;4.40;2.90;;;;;16.20;100536.00;;;;5021366;28;20205;-70
2023/08/26 05:21:07;;;;;;;8.40;2.77;;;;;16.30;100542.00;;;;5015716;28;20234;-70
2023/08/26 05:23:54;;;;;;;6.03;2.80;;;;;16.30;100537.00;;;;5023922;28;20234;-69
2023/08/26 05:26:42;;;;;;;6.83;3.10;;;;;16.20;100541.00;;;;5028834;28;20264;-70
2023/08/26 05:29:29;;;;;;;11.13;3.10;;;;;16.20;100542.00;;;;5041707;28;20294;-71
2023/08/26 05:32:15;;;;;;;7.67;2.83;;;;;16.20;100540.00;;;;5032887;28;20233;-71
2023/08/26 05:35:04;;;;;;;5.20;3.03;;;;;16.30;100538.00;;;;5034421;28;20214;-71
2023/08/26 05:37:50;;;;;;;5.97;3.20;;;;;16.40;100537.00;;;;5038458;28;20305;-70
2023/08/26 05:40:37;;;;;;;8.10;3.00;;;;;16.40;100544.00;;;;5042192;28;20692;-70
2023/08/26 05:43:26;;;;;;;4.40;2.70;;;;;16.50;100543.00;;;;5036792;28;20229;-69
2023/08/26 05:46:13;;;;;;;4.83;2.70;;;;;16.50;100542.00;;;;5044105;28;20229;-70
2023/08/26 05:48:59;;;;;;;11.30;2.57;;;;;16.50;100548.00;;;;5033484;28;20233;-69
2023/08/26 05:51:47;;;;;;;6.93;2.77;;;;;16.60;100535.00;;;;5026197;28;20217;-71
2023/08/26 05:54:33;;;;;;;6.03;3.10;;;;;16.60;100531.00;;;;5026381;28;20381;-71
2023/08/26 05:57:20;;;;;;;3.93;2.60;;;;;16.60;100534.00;;;;5019914;28;20275;-71
2023/08/26 06:00:08;;;;;;;6.23;2.73;;;;;16.70;100537.00;;;;5024526;28;20707;-68
2023/08/26 06:02:54;;;;;;;7.50;3.03;;;;;16.70;100534.00;;;;5023348;28;20695;-69
2023/08/26 06:05:41;;;;;;;7.30;3.13;;;;;16.80;100533.00;;;;5021425;28;20686;-70
2023/08/26 06:08:29;;;;;;;7.60;3.60;;;;;16.80;100532.00;;;;5022211;28;20218;-71
2023/08/26 06:11:16;;;;;;;8.63;3.17;;;;;16.80;100535.00;;;;5024115;28;20233;-71
2023/08/26 06:14:03;;;;;;;5.87;2.80;;;;;16.90;100534.00;;;;5025683;28;20313;-70
2023/08/26 06:16:49;;;;;;;11.43;3.07;;;;;16.90;100523.00;;;;5025921;28;20388;-70
2023/08/26 06:19:36;;;;;;;7.60;2.63;;;;;16.90;100529.00;;;;5025820;28;20237;-70
2023/08/26 06:22:22;;;;;;;9.10;2.87;;;;;17.00;100532.00;;;;5028113;28;20213;-70
2023/08/26 06:25:10;;;;;;;8.77;3.03;;;;;17.00;100519.00;;;;5023172;28;20221;-70
2023/08/26 06:27:56;;;;;;;6.70;2.60;;;;;17.00;100525.00;;;;5029515;28;20739;-70
2023/08/26 06:30:44;;;;;;;8.90;3.00;;;;;17.00;100530.00;;;;5025995;28;20308;-70
2023/08/26 06:33:30;;;;;;;4.83;2.83;;;;;17.10;100535.00;;;;5022815;28;20234;-70
2023/08/26 06:36:20;;;;;;;7.87;3.00;;;;;17.10;100538.00;;;;5029258;28;20365;-69
2023/08/26 06:39:06;;;;;;;5.23;2.83;;;;;17.10;100534.00;;;;5027168;28;20252;-69
2023/08/26 06:41:53;;;;;;;6.67;2.60;;;;;17.20;100533.00;;;;5029268;28;20573;-70
2023/08/26 06:44:40;;;;;;;5.67;2.80;;;;;17.20;100535.00;;;;5029475;28;20225;-70
2023/08/26 06:47:26;;;;;;;6.30;2.77;;;;;17.20;100534.00;;;;5024119;28;20880;-71
2023/08/26 06:50:13;;;;;;;4.20;2.60;;;;;17.20;100530.00;;;;5025268;28;20225;-70
2023/08/26 06:52:59;;;;;;;10.07;2.80;;;;;17.20;100538.00;;;;5028917;28;20217;-70
2023/08/26 06:55:46;;;;;;;10.93;2.73;;;;;17.30;100541.00;;;;5026763;28;20214;-70
2023/08/26 06:58:34;;;;;;;10.00;2.87;;;;;17.30;100546.00;;;;5029090;28;20221;-70
2023/08/26 07:01:20;;;;;;;6.23;2.63;;;;;17.40;100550.00;;;;5023955;28;20242;-71
2023/08/26 07:04:07;;;;;;;8.47;2.60;;;;;17.50;100544.00;;;;5029192;28;20766;-70
2023/08/26 07:06:54;;;;;;;7.43;2.67;;;;;17.50;100539.00;;;;5028056;28;20296;-71
2023/08/26 07:09:40;;;;;;;8.10;2.60;;;;;17.60;100554.00;;;;5027652;28;20327;-70
2023/08/26 07:12:27;;;;;;;6.70;2.70;;;;;17.60;100546.00;;;;5028244;28;20325;-70
2023/08/26 07:15:14;;;;;;;9.40;2.60;;;;;17.60;100552.00;;;;5022520;28;20225;-70
2023/08/26 07:18:01;;;;;;;7.03;2.23;;;;;17.60;100544.00;;;;5027360;28;20210;-70
2023/08/26 07:20:48;;;;;;;4.07;2.70;;;;;17.70;100552.00;;;;5026313;28;20224;-70
2023/08/26 07:23:34;;;;;;;8.50;2.40;;;;;17.70;100544.00;;;;5027167;28;20213;-70
2023/08/26 07:26:21;;;;;;;4.53;2.63;;;;;17.80;100542.00;;;;5022191;28;20799;-69
2023/08/26 07:29:08;;;;;;;6.73;2.40;;;;;17.90;100545.00;;;;5027836;28;20272;-70
2023/08/26 07:31:55;;;;;;;4.33;2.37;;;;;17.80;100549.00;;;;5027802;28;20268;-70
2023/08/26 07:34:42;;;;;;;6.30;2.20;;;;;17.70;100543.00;;;;5028273;28;20283;-70
2023/08/26 07:37:29;;;;;;;4.57;2.30;;;;;17.80;100540.00;;;;5021870;28;20213;-70
2023/08/26 07:40:17;;;;;;;5.30;2.50;;;;;17.70;100537.00;;;;5022153;28;20229;-68
2023/08/26 07:43:04;;;;;;;4.67;2.90;;;;;17.80;100544.00;;;;5028211;28;20352;-70
2023/08/26 07:45:51;;;;;;;3.53;2.50;;;;;18.00;100548.00;;;;5020747;28;20234;-69
2023/08/26 07:48:42;;;;;;;5.63;2.67;;;;;18.20;100552.00;;;;5027542;28;20214;-70
2023/08/26 07:51:29;;;;;;;5.10;2.80;;;;;18.30;100548.00;;;;5022736;28;20256;-70
2023/08/26 07:54:15;;;;;;;5.83;2.83;;;;;18.30;100552.00;;;;5028194;28;20349;-70
2023/08/26 07:57:01;;;;;;;6.13;2.53;;;;;18.30;100561.00;;;;5023352;28;20842;-70
2023/08/26 07:59:48;;;;;;;6.57;2.30;;;;;18.30;100552.00;;;;5027820;28;20225;-70
2023/08/26 08:02:34;;;;;;;4.43;2.30;;;;;18.20;100556.00;;;;5028471;28;20237;-70
2023/08/26 08:05:22;;;;;;;4.97;2.00;;;;;18.20;100551.00;;;;5021736;28;20231;-70
2023/08/26 08:08:09;;;;;;;3.47;1.97;;;;;18.10;100556.00;;;;5019549;28;20209;-70
2023/08/26 08:10:55;;;;;;;4.13;1.90;;;;;18.10;100546.00;;;;5027788;28;20726;-70
2023/08/26 08:13:41;;;;;;;2.80;1.70;;;;;18.00;100556.00;;;;5027125;28;20573;-70
2023/08/26 08:16:28;;;;;;;4.03;1.97;;;;;18.00;100540.00;;;;5022025;28;20702;-70
2023/08/26 08:19:14;;;;;;;4.00;1.53;;;;;18.20;100549.00;;;;5024294;28;20213;-70
2023/08/26 08:22:03;;;;;;;4.17;1.80;;;;;18.40;100550.00;;;;5026301;28;20221;-69
2023/08/26 08:24:50;;;;;;;4.13;1.70;;;;;18.50;100551.00;;;;5017112;28;20725;-70
2023/08/26 08:27:37;;;;;;;2.97;1.83;;;;;18.70;100551.00;;;;5023701;28;20271;-70
2023/08/26 08:30:23;;;;;;;4.53;1.70;;;;;18.80;100558.00;;;;5026120;28;20376;-70
2023/08/26 08:33:10;;;;;;;2.73;1.50;;;;;19.00;100558.00;;;;5027786;28;20248;-70
2023/08/26 08:35:56;;;;;;;2.73;1.60;;;;;19.10;100552.00;;;;5019710;28;20704;-70
2023/08/26 08:38:44;;;;;;;5.17;1.80;;;;;19.30;100560.00;;;;5025695;28;20214;-71
2023/08/26 08:41:34;;;;;;;2.33;1.60;;;;;19.50;100561.00;;;;5027617;28;20233;-70
2023/08/26 08:44:25;;;;;;;4.87;1.60;;;;;19.70;100562.00;;;;5026691;28;20208;-69
2023/08/26 08:47:12;;;;;;;5.33;1.53;;;;;19.90;100559.00;;;;5025242;28;20719;-70
2023/08/26 08:50:00;;;;;;;2.67;1.40;;;;;20.00;100578.00;;;;5026359;28;20293;-70
2023/08/26 08:52:50;;;;;;;3.67;1.80;;;;;20.00;100549.00;;;;5027636;28;20218;-69
2023/08/26 08:55:39;;;;;;;4.23;1.40;;;;;20.20;100563.00;;;;5025792;28;20724;-70
2023/08/26 08:58:26;;;;;;;3.77;1.53;;;;;20.40;100570.00;;;;5021515;28;20211;-70
2023/08/26 09:01:13;;;;;;;5.87;1.57;;;;;20.50;100569.00;;;;5025963;28;20236;-70
2023/08/26 09:04:00;;;;;;;4.67;1.50;;;;;20.60;100582.00;;;;5026856;28;20342;-71
2023/08/26 09:06:48;;;;;;;4.57;1.40;;;;;20.80;100583.00;;;;5023165;28;20349;-70
2023/08/26 09:09:34;;;;;;;3.40;1.43;;;;;20.90;100578.00;;;;5024666;28;20768;-70
2023/08/26 09:12:38;;;;;;;3.97;1.60;;;;;21.00;100576.00;;;;5023525;28;20217;-70
2023/08/26 09:15:26;;;;;;;3.10;1.60;;;;;21.10;100573.00;;;;5027710;28;20311;-70
2023/08/26 09:18:13;;;;;;;4.07;1.80;;;;;21.30;100581.00;;;;5026114;28;20626;-71
2023/08/26 09:21:07;;;;;;;5.37;2.10;;;;;21.30;100574.00;;;;5021869;28;20303;-71
2023/08/26 09:23:55;;;;;;;2.73;1.80;;;;;21.10;100580.00;;;;5026150;28;20459;-71
2023/08/26 09:26:41;;;;;;;2.43;1.93;;;;;21.10;100581.00;;;;5026628;28;20232;-71
2023/08/26 09:29:32;;;;;;;8.17;2.23;;;;;21.10;100580.00;;;;5023104;28;20924;-71
2023/08/26 09:32:32;;;;;;;3.83;2.10;;;;;20.90;100582.00;;;;5023422;28;20217;-69
2023/08/26 09:35:19;;;;;;;2.63;2.10;;;;;20.80;100595.00;;;;5019389;28;20220;-69
2023/08/26 09:38:28;;;;;;;4.23;2.20;;;;;20.70;100590.00;;;;5018687;28;20289;-70
2023/08/26 09:41:19;;;;;;;3.57;2.30;;;;;20.60;100591.00;;;;5026029;28;20364;-71
2023/08/26 09:44:06;;;;;;;7.13;2.27;;;;;20.70;100587.00;;;;5021841;28;20225;-68
2023/08/26 09:46:56;;;;;;;6.50;2.27;;;;;20.90;100579.00;;;;5016684;28;20236;-71
2023/08/26 09:49:48;;;;;;;3.83;1.90;;;;;21.10;100598.00;;;;5024623;28;20316;-71
2023/08/26 09:52:45;;;;;;;3.63;2.00;;;;;21.20;100579.00;;;;5020584;28;20701;-69
2023/08/26 09:55:33;;;;;;;2.60;1.90;;;;;21.40;100580.00;;;;5020272;28;20244;-70
2023/08/26 09:58:19;;;;;;;3.40;1.80;;;;;21.50;100586.00;;;;5022593;28;20713;-69
2023/08/26 10:01:07;;;;;;;2.20;1.73;;;;;21.70;100580.00;;;;5025894;28;20283;-71
2023/08/26 10:04:04;;;;;;;4.53;1.70;;;;;21.70;100593.00;;;;5022387;28;20213;-71
2023/08/26 10:06:53;;;;;;;1.87;1.50;;;;;21.60;100581.00;;;;5025533;28;20705;-71
2023/08/26 10:09:44;;;;;;;3.43;1.60;;;;;21.80;100580.00;;;;5023934;28;20288;-71
2023/08/26 10:12:36;;;;;;;4.73;1.60;;;;;22.00;100579.00;;;;5025545;28;20213;-70
2023/08/26 10:15:24;;;;;;;5.20;1.53;;;;;22.20;100595.00;;;;5018437;28;20241;-71
2023/08/26 10:18:16;;;;;;;2.13;1.60;;;;;22.20;100598.00;;;;5019538;28;20574;-71
2023/08/26 10:21:05;;;;;;;1.83;1.50;;;;;22.20;100593.00;;;;5025401;28;20234;-71
2023/08/26 10:23:52;;;;;;;3.03;1.50;;;;;21.90;100586.00;;;;5019596;28;20217;-71
2023/08/26 10:26:38;;;;;;;6.47;1.57;;;;;22.00;100597.00;;;;5021255;28;20225;-71
2023/08/26 10:29:27;;;;;;;4.07;1.57;;;;;22.10;100588.00;;;;5021174;28;20659;-71
2023/08/26 10:32:18;;;;;;;1.60;1.30;;;;;22.20;100594.00;;;;5024819;28;20248;-70
2023/08/26 10:35:11;;;;;;;1.30;1.20;;;;;22.00;100595.00;;;;5024673;28;20217;-70
2023/08/26 10:38:13;;;;;;;5.57;1.50;;;;;22.00;100594.00;;;;5022336;28;20217;-70
2023/08/26 10:41:11;;;;;;;3.23;1.60;;;;;22.20;100596.00;;;;5022933;28;20228;-71
2023/08/26 10:44:01;;;;;;;6.80;1.60;;;;;22.50;100598.00;;;;5025907;28;20280;-70
2023/08/26 10:46:55;;;;;;;3.33;1.67;;;;;22.50;100592.00;;;;5011083;28;20225;-69
2023/08/26 10:49:42;;;;;;;1.63;1.50;;;;;22.50;100602.00;;;;5022933;28;20356;-71
2023/08/26 10:52:31;;;;;;;2.50;1.53;;;;;22.50;100593.00;;;;5021416;28;20296;-70
2023/08/26 10:55:25;;;;;;;4.37;1.80;;;;;22.60;100591.00;;;;5024945;28;20210;-69
2023/08/26 10:58:14;;;;;;;1.97;1.50;;;;;22.80;100599.00;;;;5023562;28;20727;-70
2023/08/26 11:01:01;;;;;;;2.73;1.70;;;;;22.70;100587.00;;;;5025530;28;20237;-70
2023/08/26 11:03:47;;;;;;;1.40;1.30;;;;;23.00;100593.00;;;;5020674;28;20221;-68
2023/08/26 11:06:39;;;;;;;4.03;1.50;;;;;23.30;100599.00;;;;5025987;28;20233;-72
2023/08/26 11:09:26;;;;;;;6.67;1.60;;;;;23.40;100573.00;;;;5028382;28;20341;-72
2023/08/26 11:12:25;;;;;;;2.17;1.30;;;;;23.50;100587.00;;;;5028450;28;20237;-71
2023/08/26 11:15:12;;;;;;;2.60;1.33;;;;;23.60;100599.00;;;;5028559;28;20214;-70
2023/08/26 11:17:59;;;;;;;3.53;1.30;;;;;23.60;100589.00;;;;5020530;28;20230;-69
2023/08/26 11:20:45;;;;;;;4.70;1.20;;;;;23.70;100598.00;;;;5022114;28;20237;-69
2023/08/26 11:23:33;;;;;;;1.23;1.13;;;;;23.70;100587.00;;;;5028615;28;20835;-69
2023/08/26 11:26:20;;;;;;;4.47;1.20;;;;;23.90;100595.00;;;;5027019;28;20317;-70
2023/08/26 11:29:11;;;;;;;1.90;1.23;;;;;23.90;100598.00;;;;5020401;28;20205;-71
2023/08/26 11:31:57;;;;;;;2.93;1.20;;;;;23.50;100589.00;;;;5028939;28;20213;-71
2023/08/26 11:34:44;;;;;;;2.93;1.23;;;;;23.40;100601.00;;;;5022683;28;20209;-70
2023/08/26 11:37:34;;;;;;;4.70;1.23;;;;;23.30;100599.00;;;;5024067;28;20222;-70
2023/08/26 11:40:20;;;;;;;1.87;1.30;;;;;23.30;100605.00;;;;5026932;28;20255;-70
2023/08/26 11:43:08;;;;;;;2.83;1.30;;;;;23.10;100600.00;;;;5027693;28;20213;-70
2023/08/26 11:45:57;;;;;;;1.67;1.20;;;;;23.20;100595.00;;;;5024471;28;20753;-69
2023/08/26 11:48:43;;;;;;;3.10;1.60;;;;;23.10;100594.00;;;;5025344;28;20209;-69
2023/08/26 11:51:30;;;;;;;2.27;1.00;;;;;22.90;100599.00;;;;5025168;28;20294;-69
2023/08/26 11:54:23;;;;;;;2.57;1.30;;;;;22.80;100592.00;;;;5026294;28;20272;-69
2023/08/26 11:57:11;;;;;;;3.90;1.27;;;;;23.00;100598.00;;;;5025058;28;20217;-70
2023/08/26 12:00:14;;;;;;;2.07;1.40;;;;;23.40;100596.00;;;;5021873;28;20226;-69
2023/08/26 12:03:03;;;;;;;2.97;1.23;;;;;23.80;100592.00;;;;5024872;28;20212;-69
2023/08/26 12:05:52;;;;;;;4.70;1.40;;;;;24.10;100612.00;;;;5021472;28;20319;-70
2023/08/26 12:08:40;;;;;;;2.30;1.30;;;;;24.20;100605.00;;;;5024134;28;20201;-71
2023/08/26 12:11:26;;;;;;;1.70;1.23;;;;;24.40;100598.00;;;;5027490;28;20244;-71
2023/08/26 12:14:20;;;;;;;2.57;1.40;;;;;24.60;100595.00;;;;5024282;28;20220;-72
2023/08/26 12:17:07;;;;;;;4.20;1.60;;;;;25.00;100590.00;;;;5027827;28;20955;-71
2023/08/26 12:19:54;;;;;;;2.53;1.40;;;;;25.20;100591.00;;;;5025726;28;20229;-71
2023/08/26 12:22:41;;;;;;;2.63;1.50;;;;;25.10;100589.00;;;;5020868;28;20824;-69
2023/08/26 12:25:32;;;;;;;5.13;1.40;;;;;25.20;100587.00;;;;5026429;28;20241;-69
2023/08/26 12:28:23;;;;;;;2.60;1.50;;;;;25.40;100582.00;;;;5026937;28;20769;-72
2023/08/26 12:31:09;;;;;;;2.53;1.30;;;;;25.00;100592.00;;;;5023355;28;20356;-70
2023/08/26 12:33:56;;;;;;;4.50;1.70;;;;;24.40;100597.00;;;;5019772;28;20300;-69
2023/08/26 12:36:47;;;;;;;1.60;1.50;;;;;24.30;100598.00;;;;5021523;28;20205;-69
2023/08/26 12:39:33;;;;;;;4.78;1.50;;;;;24.50;100605.00;;;;5022563;28;20230;-70
2023/08/26 12:42:20;;;;;;;2.80;1.60;;;;;25.00;100596.00;;;;5026488;28;20844;-69
2023/08/26 12:45:07;;;;;;;1.97;1.40;;;;;25.40;100601.00;;;;5019560;28;20754;-68
2023/08/26 12:47:54;;;;;;;1.80;1.42;;;;;25.70;100599.00;;;;5019558;28;20229;-69
2023/08/26 12:50:41;;;;;;;2.67;1.27;;;;;25.40;100608.00;;;;5017130;28;20799;-70
2023/08/26 12:53:29;;;;;;;1.85;1.60;;;;;25.30;100610.00;;;;5020332;28;20632;-70
2023/08/26 12:56:16;;;;;;;2.70;1.33;;;;;25.50;100610.00;;;;5023870;28;20303;-69
2023/08/26 12:59:02;;;;;;;2.50;1.33;;;;;25.90;100605.00;;;;5022271;28;20746;-69
2023/08/26 13:01:48;;;;;;;1.85;1.33;;;;;26.10;100602.00;;;;5020364;28;20698;-71
2023/08/26 13:04:35;;;;;;;1.33;1.20;;;;;26.30;100605.00;;;;5026495;28;20610;-71
2023/08/26 13:07:21;;;;;;;2.30;1.20;;;;;26.10;100607.00;;;;5026653;28;20733;-71
2023/08/26 13:10:09;;;;;;;2.40;1.60;;;;;26.10;100603.00;;;;5022575;28;20244;-71
2023/08/26 13:12:56;;;;;;;4.07;1.88;;;;;25.70;100605.00;;;;5020772;28;20277;-70
2023/08/26 13:15:43;;;;;;;5.00;1.40;;;;;26.00;100594.00;;;;5027412;28;20288;-71
2023/08/26 13:18:29;;;;;;;2.20;1.50;;;;;26.40;100604.00;;;;5025282;28;20240;-71
2023/08/26 13:21:16;;;;;;;3.63;1.20;;;;;26.50;100606.00;;;;5018325;28;20238;-71
2023/08/26 13:24:02;;;;;;;2.80;1.33;;;;;26.20;100613.00;;;;5026281;28;20201;-71
2023/08/26 13:26:51;;;;;;;2.05;1.40;;;;;25.80;100609.00;;;;5019869;28;20287;-71
2023/08/26 13:29:37;;;;;;;2.58;1.60;;;;;25.50;100614.00;;;;5025990;28;20591;-71
2023/08/26 13:32:24;;;;;;;2.85;1.70;;;;;25.40;100607.00;;;;5026238;28;20209;-71
2023/08/26 13:35:10;;;;;;;2.67;1.85;;;;;25.90;100607.00;;;;5026062;28;20225;-70
2023/08/26 13:37:56;;;;;;;2.22;1.50;;;;;25.90;100611.00;;;;5015711;28;20349;-71
2023/08/26 13:40:44;;;;;;;2.83;1.58;;;;;25.40;100613.00;;;;5024369;28;20233;-70
2023/08/26 13:43:31;;;;;;;2.00;1.65;;;;;25.20;100606.00;;;;5024976;28;20956;-71
2023/08/26 13:46:18;;;;;;;4.10;1.40;;;;;24.80;100616.00;;;;5024174;28;20336;-72